Time;durP1;ratioP1;P1;durP2;ratioP2;P2;SDS_P1;SDS_P2;PMS_P1;PMS_P2;Temp;Humidity;BMP_temperature;BMP_pressure;BME280_temperature;BME280_humidity;BME280_pressure;Samples;Min_cycle;Max_cycle;Signal;HPM_P1;HPM_P2
2022/07/07 00:02:28;;;;;;;1.27;0.60;;;15.90;99.90;;;;;;5048741;28;20222;-76
2022/07/07 00:04:59;;;;;;;1.08;0.40;;;15.90;99.90;;;;;;5051290;28;20197;-77
2022/07/07 00:07:31;;;;;;;2.97;1.35;;;15.90;99.90;;;;;;5048107;28;20265;-76
2022/07/07 00:10:02;;;;;;;0.77;0.50;;;16.00;99.90;;;;;;5044871;28;20201;-76
2022/07/07 00:12:33;;;;;;;1.70;0.40;;;16.10;99.90;;;;;;5053209;28;20204;-76
2022/07/07 00:15:04;;;;;;;2.83;0.47;;;16.10;99.90;;;;;;5052226;28;20198;-77
2022/07/07 00:17:34;;;;;;;1.95;0.50;;;16.10;99.90;;;;;;5052195;28;20212;-76
2022/07/07 00:20:05;;;;;;;3.38;0.75;;;16.10;99.90;;;;;;5050700;28;20190;-77
2022/07/07 00:22:38;;;;;;;2.95;0.40;;;16.10;99.90;;;;;;5052450;28;20217;-77
2022/07/07 00:25:09;;;;;;;1.60;0.43;;;16.20;99.90;;;;;;5052678;28;20196;-79
2022/07/07 00:27:40;;;;;;;2.22;0.50;;;16.20;99.90;;;;;;5053022;28;20198;-75
2022/07/07 00:30:11;;;;;;;2.55;0.50;;;16.10;99.90;;;;;;5046507;28;20224;-76
2022/07/07 00:32:42;;;;;;;3.72;0.70;;;16.10;99.90;;;;;;5050869;28;20561;-76
2022/07/07 00:35:13;;;;;;;3.47;0.50;;;16.10;99.90;;;;;;5052034;28;20197;-76
2022/07/07 00:37:45;;;;;;;2.78;0.55;;;16.10;99.90;;;;;;5052372;28;20635;-76
2022/07/07 00:40:16;;;;;;;2.45;0.75;;;16.10;99.90;;;;;;5052217;28;20209;-76
2022/07/07 00:42:47;;;;;;;2.95;0.60;;;16.00;99.90;;;;;;5051557;28;20214;-76
2022/07/07 00:45:20;;;;;;;2.58;0.63;;;16.00;99.90;;;;;;5050604;28;20560;-77
2022/07/07 00:47:52;;;;;;;54.67;35.63;;;16.00;99.90;;;;;;5053166;28;20577;-77
2022/07/07 00:50:23;;;;;;;9.75;5.60;;;16.00;99.90;;;;;;5052078;28;20198;-76
2022/07/07 00:52:55;;;;;;;4.72;1.60;;;16.00;99.90;;;;;;5040475;28;20232;-77
2022/07/07 00:55:26;;;;;;;2.65;1.00;;;16.10;99.90;;;;;;5051570;28;20204;-77
2022/07/07 00:57:57;;;;;;;4.07;0.52;;;16.20;99.90;;;;;;5052223;28;20256;-78
2022/07/07 01:00:28;;;;;;;2.72;0.70;;;16.30;99.90;;;;;;5050956;28;20209;-77
2022/07/07 01:02:58;;;;;;;2.88;0.70;;;16.40;99.90;;;;;;5050119;28;20695;-78
2022/07/07 01:05:31;;;;;;;1.50;0.60;;;16.50;99.90;;;;;;5051532;28;20197;-78
2022/07/07 01:08:04;;;;;;;2.85;0.60;;;16.60;99.90;;;;;;5052006;28;20713;-77
2022/07/07 01:10:35;;;;;;;2.53;0.70;;;16.80;99.90;;;;;;5052907;28;20672;-77
2022/07/07 01:13:06;;;;;;;2.33;0.43;;;16.80;99.90;;;;;;5052741;28;20202;-79
2022/07/07 01:15:37;;;;;;;3.78;0.50;;;16.90;99.90;;;;;;5051710;28;20251;-77
2022/07/07 01:18:08;;;;;;;1.70;0.68;;;17.00;99.90;;;;;;5052549;28;20194;-77
2022/07/07 01:20:39;;;;;;;5.15;0.70;;;17.20;99.90;;;;;;5032579;28;20197;-78
2022/07/07 01:23:12;;;;;;;3.08;0.60;;;17.20;99.90;;;;;;5043668;28;20217;-77
2022/07/07 01:25:43;;;;;;;1.88;0.57;;;17.30;99.90;;;;;;5049541;28;20198;-77
2022/07/07 01:28:13;;;;;;;2.90;0.80;;;17.40;99.90;;;;;;5051734;28;20194;-77
2022/07/07 01:30:44;;;;;;;1.13;0.70;;;17.40;99.90;;;;;;5055960;28;20190;-77
2022/07/07 01:33:17;;;;;;;2.33;0.85;;;17.50;99.90;;;;;;5053815;28;20197;-77
2022/07/07 01:35:48;;;;;;;3.53;0.80;;;17.50;99.90;;;;;;5053844;28;20287;-77
2022/07/07 01:38:20;;;;;;;2.28;0.57;;;17.50;99.90;;;;;;5051940;28;20240;-77
2022/07/07 01:40:51;;;;;;;4.22;0.82;;;17.40;99.90;;;;;;5055543;28;20225;-77
2022/07/07 01:43:21;;;;;;;2.90;0.75;;;17.60;99.90;;;;;;5053210;28;20229;-77
2022/07/07 01:45:52;;;;;;;4.75;0.90;;;17.60;99.90;;;;;;5053507;28;20197;-78
2022/07/07 01:48:23;;;;;;;1.60;0.60;;;17.60;99.90;;;;;;5054382;28;20252;-78
2022/07/07 01:50:53;;;;;;;3.08;0.60;;;17.60;99.90;;;;;;5051908;28;20186;-77
2022/07/07 01:53:26;;;;;;;1.55;0.57;;;17.60;99.90;;;;;;5053718;28;20194;-77
2022/07/07 01:55:56;;;;;;;6.78;1.35;;;17.60;99.90;;;;;;5054743;28;20653;-78
2022/07/07 01:58:27;;;;;;;2.45;0.90;;;17.60;99.90;;;;;;5055840;28;20194;-78
2022/07/07 02:00:58;;;;;;;4.25;1.23;;;17.50;99.90;;;;;;5051557;28;20208;-78
2022/07/07 02:03:28;;;;;;;3.70;0.75;;;17.40;99.90;;;;;;5054153;28;20217;-77
2022/07/07 02:05:59;;;;;;;3.53;0.68;;;17.50;99.90;;;;;;5053364;28;20232;-77
2022/07/07 02:08:31;;;;;;;2.78;0.70;;;17.40;99.90;;;;;;5055238;28;20200;-77
2022/07/07 02:11:17;;;;;;;4.53;1.02;;;17.50;99.90;;;;;;5054476;28;20202;-77
2022/07/07 02:13:49;;;;;;;1.90;0.70;;;17.60;99.90;;;;;;5053011;28;20208;-77
2022/07/07 02:16:21;;;;;;;0.22;0.22;;;17.80;99.90;;;;;;5052206;28;20201;-77
2022/07/07 02:18:55;;;;;;;4.50;0.68;;;18.00;99.90;;;;;;5052289;28;20197;-77
2022/07/07 02:21:26;;;;;;;1.73;0.60;;;18.20;99.90;;;;;;5052679;28;20205;-76
2022/07/07 02:23:59;;;;;;;2.03;0.47;;;18.20;99.90;;;;;;5052844;28;20220;-77
2022/07/07 02:26:31;;;;;;;2.03;0.65;;;18.10;99.90;;;;;;5045838;28;20198;-76
2022/07/07 02:29:01;;;;;;;3.30;0.47;;;18.10;99.90;;;;;;5041640;28;20197;-76
2022/07/07 02:31:33;;;;;;;6.45;3.83;;;18.00;99.90;;;;;;5050859;28;20679;-77
2022/07/07 02:34:03;;;;;;;3.28;1.30;;;18.00;99.90;;;;;;5051873;28;20667;-76
2022/07/07 02:36:34;;;;;;;10.88;5.97;;;18.10;99.90;;;;;;5051781;28;20194;-77
2022/07/07 02:39:07;;;;;;;7.78;3.03;;;18.10;99.90;;;;;;5041091;28;20630;-74
2022/07/07 02:41:38;;;;;;;6.30;3.45;;;18.10;99.90;;;;;;5045458;28;20218;-75
2022/07/07 02:44:08;;;;;;;5.35;3.03;;;18.00;99.90;;;;;;5048898;28;20221;-75
2022/07/07 02:46:39;;;;;;;8.43;4.75;;;18.00;99.90;;;;;;5049286;28;20445;-80
2022/07/07 02:49:10;;;;;;;5.03;2.70;;;18.00;99.90;;;;;;5051038;28;20562;-78
2022/07/07 02:51:40;;;;;;;6.55;1.08;;;17.90;99.90;;;;;;5050609;28;20197;-79
2022/07/07 02:54:13;;;;;;;2.78;1.10;;;17.90;99.90;;;;;;5052443;28;20197;-79
2022/07/07 02:56:43;;;;;;;2.67;0.85;;;17.90;99.90;;;;;;5051475;28;20205;-80
2022/07/07 02:59:14;;;;;;;4.35;1.20;;;17.90;99.90;;;;;;5051542;28;20190;-79
2022/07/07 03:01:45;;;;;;;3.63;0.90;;;17.90;99.90;;;;;;5045425;28;20199;-78
2022/07/07 03:04:15;;;;;;;5.28;0.90;;;17.90;99.90;;;;;;5054275;28;20688;-77
2022/07/07 03:06:46;;;;;;;4.72;0.75;;;17.90;99.90;;;;;;5051096;28;20201;-79
2022/07/07 03:09:19;;;;;;;1.40;0.57;;;18.00;99.90;;;;;;5052417;28;20197;-78
2022/07/07 03:11:49;;;;;;;1.42;0.43;;;18.00;99.90;;;;;;5053452;28;20213;-79
2022/07/07 03:14:20;;;;;;;3.38;0.50;;;18.20;99.90;;;;;;5051724;28;20559;-77
2022/07/07 03:16:51;;;;;;;2.60;0.50;;;18.20;99.90;;;;;;5051420;28;20571;-77
2022/07/07 03:19:22;;;;;;;2.70;0.60;;;18.20;99.90;;;;;;5049468;28;20563;-76
2022/07/07 03:21:52;;;;;;;2.42;0.52;;;18.20;99.90;;;;;;5050951;28;20697;-76
2022/07/07 03:24:25;;;;;;;2.42;0.60;;;18.20;99.90;;;;;;5051372;28;20226;-77
2022/07/07 03:26:56;;;;;;;3.20;0.40;;;18.20;99.90;;;;;;5053153;28;20196;-76
2022/07/07 03:29:26;;;;;;;1.65;0.60;;;18.30;99.90;;;;;;5051754;28;20198;-76
2022/07/07 03:31:57;;;;;;;1.60;0.45;;;18.30;99.90;;;;;;5051226;28;20212;-77
2022/07/07 03:34:28;;;;;;;4.78;0.60;;;18.40;99.90;;;;;;5050570;28;20206;-77
2022/07/07 03:36:58;;;;;;;1.10;0.50;;;18.40;99.90;;;;;;5053038;28;20205;-77
2022/07/07 03:39:31;;;;;;;2.60;0.70;;;18.40;99.90;;;;;;5051593;28;20205;-77
2022/07/07 03:42:02;;;;;;;3.05;0.60;;;18.40;99.90;;;;;;5052565;28;20225;-76
2022/07/07 03:44:32;;;;;;;1.27;0.45;;;18.40;99.90;;;;;;5050389;28;20225;-76
2022/07/07 03:47:03;;;;;;;2.35;0.68;;;18.30;99.90;;;;;;5049527;28;20193;-77
2022/07/07 03:49:34;;;;;;;1.52;0.60;;;18.30;99.90;;;;;;5051811;28;20209;-76
2022/07/07 03:52:05;;;;;;;1.70;0.47;;;18.30;99.90;;;;;;5046713;28;20198;-78
2022/07/07 03:54:38;;;;;;;1.25;0.38;;;18.30;99.90;;;;;;5049933;28;20198;-77
2022/07/07 03:57:09;;;;;;;1.75;0.55;;;18.30;99.90;;;;;;5051818;28;20194;-76
2022/07/07 03:59:39;;;;;;;0.90;0.50;;;18.30;99.90;;;;;;5048156;28;20189;-77
2022/07/07 04:02:10;;;;;;;2.50;0.40;;;18.30;99.90;;;;;;5040390;28;20209;-78
2022/07/07 04:04:41;;;;;;;1.80;0.50;;;18.20;99.90;;;;;;5052028;28;20210;-77
2022/07/07 04:07:12;;;;;;;2.08;0.57;;;18.20;99.90;;;;;;5048102;28;20193;-77
2022/07/07 04:09:44;;;;;;;2.05;0.70;;;18.20;99.90;;;;;;5049094;28;20276;-76
2022/07/07 04:12:17;;;;;;;4.32;2.35;;;18.10;99.90;;;;;;5049025;28;20213;-77
2022/07/07 04:14:48;;;;;;;5.07;0.85;;;18.00;99.90;;;;;;5049832;28;20204;-77
2022/07/07 04:17:19;;;;;;;3.38;0.82;;;17.80;99.90;;;;;;5050876;28;20189;-78
2022/07/07 04:19:49;;;;;;;3.58;0.80;;;17.70;99.90;;;;;;5049604;28;20201;-77
2022/07/07 04:22:20;;;;;;;3.90;0.70;;;17.60;99.90;;;;;;5049763;28;20205;-76
2022/07/07 04:24:54;;;;;;;1.95;0.68;;;17.50;99.90;;;;;;5047581;28;20321;-77
2022/07/07 04:27:24;;;;;;;4.15;0.70;;;17.40;99.90;;;;;;5052103;28;20638;-77
2022/07/07 04:29:55;;;;;;;4.60;0.80;;;17.40;99.90;;;;;;5051025;28;20284;-76
2022/07/07 04:32:26;;;;;;;4.72;1.08;;;17.20;99.90;;;;;;5051319;28;20193;-77
2022/07/07 04:34:57;;;;;;;4.80;0.82;;;17.20;99.90;;;;;;5047108;28;20209;-77
2022/07/07 04:37:27;;;;;;;3.63;0.85;;;17.20;99.90;;;;;;5050027;28;20229;-76
2022/07/07 04:40:00;;;;;;;2.53;1.02;;;17.20;99.90;;;;;;5050951;28;20193;-76
2022/07/07 04:42:31;;;;;;;5.30;0.93;;;17.20;99.90;;;;;;5051696;28;20227;-75
2022/07/07 04:45:01;;;;;;;3.95;1.08;;;17.20;99.90;;;;;;5046802;28;20214;-76
2022/07/07 04:47:32;;;;;;;4.05;0.80;;;17.10;99.90;;;;;;5050087;28;20540;-76
2022/07/07 04:50:03;;;;;;;2.55;0.90;;;17.10;99.90;;;;;;5050549;28;20208;-76
2022/07/07 04:52:33;;;;;;;4.22;0.85;;;17.00;99.90;;;;;;5050474;28;20193;-76
2022/07/07 04:55:07;;;;;;;3.75;0.80;;;17.00;99.90;;;;;;5048847;28;20189;-76
2022/07/07 04:57:38;;;;;;;4.40;0.60;;;17.00;99.90;;;;;;5048722;28;20273;-75
2022/07/07 05:00:09;;;;;;;3.33;0.70;;;17.00;99.90;;;;;;5050580;28;20194;-77
2022/07/07 05:02:40;;;;;;;3.33;0.73;;;17.00;99.90;;;;;;5054973;28;20197;-76
2022/07/07 05:05:11;;;;;;;4.40;0.95;;;17.00;99.90;;;;;;5053761;28;20230;-77
2022/07/07 05:07:42;;;;;;;5.95;1.13;;;16.90;99.90;;;;;;5055465;28;20201;-77
2022/07/07 05:10:15;;;;;;;4.88;0.88;;;16.90;99.90;;;;;;5055380;28;20194;-76
2022/07/07 05:12:46;;;;;;;4.50;0.93;;;16.80;99.90;;;;;;5053832;28;20229;-76
2022/07/07 05:15:17;;;;;;;3.42;0.90;;;16.80;99.90;;;;;;5046591;28;20222;-77
2022/07/07 05:17:48;;;;;;;3.92;0.80;;;16.70;99.90;;;;;;5051842;28;20198;-78
2022/07/07 05:20:18;;;;;;;3.08;0.98;;;16.50;99.90;;;;;;5056101;28;20267;-77
2022/07/07 05:22:49;;;;;;;5.60;1.10;;;16.40;99.90;;;;;;5054256;28;20235;-78
2022/07/07 05:25:22;;;;;;;5.65;0.98;;;16.30;99.90;;;;;;5055159;28;20228;-77
2022/07/07 05:27:53;;;;;;;5.18;1.20;;;16.30;99.90;;;;;;5055602;28;20736;-79
2022/07/07 05:30:24;;;;;;;3.78;0.80;;;16.20;99.90;;;;;;5052597;28;20204;-77
2022/07/07 05:32:54;;;;;;;8.48;1.02;;;16.10;99.90;;;;;;5051536;28;20273;-78
2022/07/07 05:35:25;;;;;;;7.13;1.08;;;16.10;99.90;;;;;;5051115;28;20202;-77
2022/07/07 05:37:56;;;;;;;5.72;0.82;;;16.10;99.90;;;;;;5052093;28;20225;-78
2022/07/07 05:40:29;;;;;;;2.38;0.80;;;16.10;99.90;;;;;;5055011;28;20185;-76
2022/07/07 05:42:59;;;;;;;5.63;0.80;;;16.00;99.90;;;;;;5055372;28;20209;-77
2022/07/07 05:45:30;;;;;;;6.78;0.90;;;16.10;99.90;;;;;;5051817;28;20223;-77
2022/07/07 05:48:01;;;;;;;2.20;0.70;;;16.10;99.90;;;;;;5055171;28;20189;-77
2022/07/07 05:50:32;;;;;;;3.20;0.93;;;16.20;99.90;;;;;;5054650;28;20205;-77
2022/07/07 05:53:03;;;;;;;2.58;0.85;;;16.20;99.90;;;;;;5051654;28;20189;-77
2022/07/07 05:55:35;;;;;;;3.10;0.73;;;16.20;99.90;;;;;;5053154;28;20233;-77
2022/07/07 05:58:06;;;;;;;3.20;0.88;;;16.10;99.90;;;;;;5050128;28;20243;-76
2022/07/07 06:00:37;;;;;;;2.78;0.73;;;16.00;99.90;;;;;;5049510;28;20197;-76
2022/07/07 06:03:08;;;;;;;2.10;0.73;;;15.90;99.90;;;;;;5053814;28;20213;-76
2022/07/07 06:05:39;;;;;;;2.35;0.73;;;15.80;99.90;;;;;;5052302;28;20304;-77
2022/07/07 06:08:10;;;;;;;2.45;0.70;;;15.70;99.90;;;;;;5051392;28;20201;-78
2022/07/07 06:10:43;;;;;;;1.33;0.80;;;15.70;99.90;;;;;;5048969;28;20186;-78
2022/07/07 06:13:14;;;;;;;1.40;0.70;;;15.70;99.90;;;;;;5052330;28;20190;-77
2022/07/07 06:15:45;;;;;;;2.72;0.60;;;15.50;99.90;;;;;;5051262;28;20233;-77
2022/07/07 06:18:16;;;;;;;2.58;0.60;;;15.60;99.90;;;;;;5051807;28;20202;-77
2022/07/07 06:20:46;;;;;;;5.45;0.90;;;15.60;99.90;;;;;;5051552;28;20672;-77
2022/07/07 06:23:17;;;;;;;3.55;0.73;;;15.50;99.90;;;;;;5049907;28;20189;-77
2022/07/07 06:25:50;;;;;;;2.00;0.60;;;15.40;99.90;;;;;;5052164;28;20213;-77
2022/07/07 06:28:21;;;;;;;2.85;0.65;;;15.40;99.90;;;;;;5053973;28;20204;-78
2022/07/07 06:30:52;;;;;;;4.18;0.95;;;15.30;99.90;;;;;;5049833;28;20265;-77
2022/07/07 06:33:22;;;;;;;3.75;0.80;;;15.20;99.90;;;;;;5054108;28;20193;-78
2022/07/07 06:35:54;;;;;;;4.07;0.85;;;15.10;99.90;;;;;;5054528;28;20193;-77
2022/07/07 06:38:25;;;;;;;242.70;161.93;;;15.10;99.90;;;;;;5053761;28;20232;-77
2022/07/07 06:41:02;;;;;;;31.42;20.55;;;15.10;99.90;;;;;;5054376;28;20271;-79
2022/07/07 06:43:33;;;;;;;20.95;11.98;;;15.00;99.90;;;;;;5053370;28;20186;-83
2022/07/07 06:46:04;;;;;;;7.38;3.33;;;15.00;99.90;;;;;;5051626;28;20217;-78
2022/07/07 06:48:34;;;;;;;5.15;1.63;;;15.00;99.90;;;;;;5054165;28;20688;-78
2022/07/07 06:51:06;;;;;;;4.47;1.02;;;15.00;99.90;;;;;;5051628;28;20191;-78
2022/07/07 06:53:37;;;;;;;3.17;0.70;;;15.00;99.90;;;;;;5043839;28;20190;-77
2022/07/07 06:56:10;;;;;;;4.22;0.95;;;14.90;99.90;;;;;;5051840;28;20612;-77
2022/07/07 06:58:41;;;;;;;6.95;1.13;;;14.90;99.90;;;;;;5050789;28;20193;-78
2022/07/07 07:01:11;;;;;;;9.20;4.75;;;14.90;99.90;;;;;;5050762;28;20192;-79
2022/07/07 07:03:42;;;;;;;7.20;3.03;;;14.80;99.90;;;;;;5054024;28;20190;-78
2022/07/07 07:06:14;;;;;;;5.10;1.30;;;14.80;99.90;;;;;;5048350;28;20213;-79
2022/07/07 07:08:45;;;;;;;4.60;1.13;;;14.80;99.90;;;;;;5053102;28;20554;-79
2022/07/07 07:11:18;;;;;;;3.85;0.90;;;14.80;99.90;;;;;;5048172;28;20186;-80
2022/07/07 07:13:51;;;;;;;7.82;1.50;;;14.80;99.90;;;;;;5053867;28;20192;-80
2022/07/07 07:16:22;;;;;;;3.97;1.10;;;14.70;99.90;;;;;;5049872;28;20255;-80
2022/07/07 07:18:53;;;;;;;6.43;1.15;;;14.70;99.90;;;;;;5052987;28;20205;-80
2022/07/07 07:21:24;;;;;;;6.18;1.25;;;14.70;99.90;;;;;;5051957;28;20581;-80
2022/07/07 07:23:55;;;;;;;3.33;0.98;;;14.60;99.90;;;;;;5050846;28;20193;-80
2022/07/07 07:26:28;;;;;;;6.63;1.10;;;14.60;99.90;;;;;;5050337;28;20765;-81
2022/07/07 07:28:59;;;;;;;4.85;1.40;;;14.50;99.90;;;;;;5045531;28;20201;-81
2022/07/07 07:31:30;;;;;;;8.75;1.23;;;14.50;99.90;;;;;;5050837;28;20198;-81
2022/07/07 07:34:01;;;;;;;4.82;1.40;;;14.50;99.90;;;;;;5053210;28;20194;-80
2022/07/07 07:36:33;;;;;;;5.95;1.20;;;14.50;99.90;;;;;;5050054;28;20280;-81
2022/07/07 07:39:04;;;;;;;4.85;1.38;;;14.40;99.90;;;;;;5050643;28;20736;-81
2022/07/07 07:41:37;;;;;;;5.53;1.10;;;14.40;99.90;;;;;;5048376;28;20229;-80
2022/07/07 07:44:08;;;;;;;8.70;1.38;;;14.40;99.90;;;;;;5052858;28;20197;-80
2022/07/07 07:46:38;;;;;;;6.53;1.70;;;14.30;99.90;;;;;;5048053;28;20221;-80
2022/07/07 07:49:09;;;;;;;5.25;1.38;;;14.30;99.90;;;;;;5052918;28;20192;-80
2022/07/07 07:51:40;;;;;;;5.55;1.52;;;14.30;99.90;;;;;;5049396;28;20228;-80
2022/07/07 07:54:11;;;;;;;5.50;1.42;;;14.30;99.90;;;;;;5050296;28;20197;-81
2022/07/07 07:56:44;;;;;;;8.15;2.00;;;14.30;99.90;;;;;;5051526;28;20209;-80
2022/07/07 07:59:15;;;;;;;3.58;1.25;;;14.30;99.90;;;;;;5050183;28;20262;-80
2022/07/07 08:01:47;;;;;;;5.63;1.70;;;14.30;99.90;;;;;;5050649;28;20205;-81
2022/07/07 08:04:17;;;;;;;4.53;1.23;;;14.20;99.90;;;;;;5041348;28;20213;-82
2022/07/07 08:06:48;;;;;;;6.43;1.48;;;14.20;99.90;;;;;;5048046;28;20217;-81
2022/07/07 08:09:20;;;;;;;6.00;1.50;;;14.20;99.90;;;;;;5050462;28;20205;-81
2022/07/07 08:11:56;;;;;;;9.10;1.95;;;14.20;99.90;;;;;;5033085;28;20186;-81
2022/07/07 08:14:27;;;;;;;7.38;1.58;;;14.20;99.90;;;;;;5040167;28;20239;-80
2022/07/07 08:16:57;;;;;;;3.97;1.20;;;14.10;99.90;;;;;;5052160;28;20197;-81
2022/07/07 08:19:28;;;;;;;5.57;1.60;;;14.10;99.90;;;;;;5052265;28;20201;-80
2022/07/07 08:22:00;;;;;;;6.55;1.50;;;14.10;99.90;;;;;;5051129;28;20196;-81
2022/07/07 08:24:31;;;;;;;7.72;1.73;;;14.10;99.90;;;;;;5048171;28;20205;-81
2022/07/07 08:27:03;;;;;;;3.78;1.58;;;14.10;99.90;;;;;;5052605;28;20256;-81
2022/07/07 08:29:37;;;;;;;8.23;2.10;;;14.10;99.90;;;;;;5049293;28;20673;-81
2022/07/07 08:32:10;;;;;;;8.60;1.73;;;14.00;99.90;;;;;;5046858;28;20193;-82
2022/07/07 08:34:42;;;;;;;7.28;1.60;;;14.00;99.90;;;;;;5050307;28;20284;-81
2022/07/07 08:37:13;;;;;;;97.43;55.88;;;14.10;99.90;;;;;;5055459;28;20200;-80
2022/07/07 08:39:46;;;;;;;11.13;5.32;;;14.00;99.90;;;;;;5055870;28;20558;-80
2022/07/07 08:42:21;;;;;;;9.73;3.97;;;14.00;99.90;;;;;;5053892;28;20275;-80
2022/07/07 08:44:52;;;;;;;6.28;2.60;;;14.00;99.90;;;;;;5049929;28;20197;-80
2022/07/07 08:47:23;;;;;;;6.85;2.00;;;13.90;99.90;;;;;;5052629;28;20201;-80
2022/07/07 08:49:54;;;;;;;5.88;2.05;;;13.90;99.90;;;;;;5055916;28;20280;-79
2022/07/07 08:52:25;;;;;;;9.82;2.95;;;13.80;99.90;;;;;;5049604;28;20197;-79
2022/07/07 08:54:57;;;;;;;6.80;2.50;;;13.80;99.90;;;;;;5049766;28;20201;-79
2022/07/07 08:57:30;;;;;;;5.97;2.10;;;13.80;99.90;;;;;;5056476;28;20596;-79
2022/07/07 09:00:01;;;;;;;11.23;2.50;;;13.70;99.90;;;;;;5053468;28;20672;-79
2022/07/07 09:02:32;;;;;;;7.75;2.38;;;13.70;99.90;;;;;;5053992;28;20197;-80
2022/07/07 09:05:05;;;;;;;10.57;2.47;;;13.70;99.90;;;;;;5051458;28;20194;-80
2022/07/07 09:07:51;;;;;;;5.78;2.28;;;13.70;99.90;;;;;;5051779;28;20206;-80
2022/07/07 09:10:33;;;;;;;13.10;2.80;;;13.60;99.90;;;;;;5048301;28;20205;-79
2022/07/07 09:13:21;;;;;;;5.82;2.15;;;13.60;99.90;;;;;;5053249;28;20722;-80
2022/07/07 09:15:58;;;;;;;7.18;2.30;;;13.60;99.90;;;;;;5047391;28;20205;-80
2022/07/07 09:18:35;;;;;;;8.70;2.88;;;13.60;99.90;;;;;;5047590;28;20203;-80
2022/07/07 09:21:10;;;;;;;8.20;2.42;;;13.50;99.90;;;;;;5050193;28;20223;-80
2022/07/07 09:23:57;;;;;;;7.63;2.47;;;13.50;99.90;;;;;;5052255;28;20309;-79
2022/07/07 09:26:41;;;;;;;7.10;2.90;;;13.50;99.90;;;;;;5047588;28;20747;-80
2022/07/07 09:29:17;;;;;;;7.82;2.40;;;13.40;99.90;;;;;;5052792;28;20193;-80
2022/07/07 09:31:59;;;;;;;8.02;2.80;;;13.40;99.90;;;;;;5050689;28;20225;-80
2022/07/07 09:34:32;;;;;;;5.93;2.17;;;13.40;99.90;;;;;;5055013;28;20197;-81
2022/07/07 09:39:52;;;;;;;8.02;2.40;;;13.30;99.90;;;;;;5050472;28;20193;-80
2022/07/07 09:42:24;;;;;;;5.32;2.20;;;13.30;99.90;;;;;;5051050;28;20283;-80
2022/07/07 09:45:00;;;;;;;8.77;2.70;;;13.20;99.90;;;;;;5052946;28;20201;-80
2022/07/07 09:47:33;;;;;;;5.93;2.45;;;13.20;99.90;;;;;;5048074;28;20676;-80
2022/07/07 09:50:06;;;;;;;7.10;2.60;;;13.20;99.90;;;;;;5049737;28;20201;-80
2022/07/07 09:52:40;;;;;;;11.15;3.05;;;13.20;99.90;;;;;;5053608;28;20193;-80
2022/07/07 09:55:14;;;;;;;6.80;2.90;;;13.20;99.90;;;;;;5050226;28;20198;-79
2022/07/07 09:57:47;;;;;;;7.35;2.97;;;13.20;99.90;;;;;;5053972;28;20680;-80
2022/07/07 10:00:20;;;;;;;6.50;3.10;;;13.10;99.90;;;;;;5051503;28;20649;-80
2022/07/07 10:02:54;;;;;;;7.05;2.90;;;13.10;99.90;;;;;;5052648;28;20193;-80
2022/07/07 10:05:27;;;;;;;8.43;3.00;;;13.10;99.90;;;;;;5050825;28;20194;-79
2022/07/07 10:08:00;;;;;;;8.13;3.20;;;13.10;99.90;;;;;;5050524;28;20240;-79
2022/07/07 10:10:32;;;;;;;7.55;2.90;;;13.00;99.90;;;;;;5053165;28;20200;-79
2022/07/07 10:13:04;;;;;;;7.00;2.88;;;13.00;99.90;;;;;;5052322;28;20197;-79
2022/07/07 10:15:38;;;;;;;8.13;2.80;;;13.00;99.90;;;;;;5054173;28;20208;-79
2022/07/07 10:18:10;;;;;;;8.63;2.92;;;12.90;99.90;;;;;;5038963;28;20221;-79
2022/07/07 10:20:41;;;;;;;4.63;3.00;;;12.90;99.90;;;;;;5041837;28;20205;-79
2022/07/07 10:23:12;;;;;;;8.05;3.30;;;12.90;99.90;;;;;;5052159;28;20190;-79
2022/07/07 10:25:43;;;;;;;6.45;3.80;;;12.80;99.90;;;;;;5053540;28;20643;-76
2022/07/07 10:28:14;;;;;;;10.70;3.92;;;12.80;99.90;;;;;;5053460;28;20201;-78
2022/07/07 10:30:47;;;;;;;7.88;4.57;;;12.80;99.90;;;;;;5047286;28;20209;-78
2022/07/07 10:33:18;;;;;;;10.80;4.47;;;12.80;99.90;;;;;;5053807;28;20209;-78
2022/07/07 10:35:49;;;;;;;13.00;5.10;;;12.70;99.90;;;;;;5053971;28;20676;-78
2022/07/07 10:38:22;;;;;;;9.88;5.20;;;12.70;99.90;;;;;;5047788;28;20568;-78
2022/07/07 10:40:58;;;;;;;10.85;4.95;;;12.60;99.90;;;;;;5053086;28;20300;-78
2022/07/07 10:43:36;;;;;;;8.05;4.95;;;12.60;99.90;;;;;;5054509;28;20221;-78
2022/07/07 10:46:17;;;;;;;9.57;4.70;;;12.50;99.90;;;;;;5051791;28;20746;-79
2022/07/07 10:48:50;;;;;;;7.78;4.65;;;12.50;99.90;;;;;;5052443;28;20237;-78
2022/07/07 10:51:27;;;;;;;6.63;4.63;;;12.40;99.90;;;;;;5052390;28;20579;-79
2022/07/07 10:54:06;;;;;;;8.60;4.72;;;12.30;99.90;;;;;;5053779;28;20201;-78
2022/07/07 10:57:13;;;;;;;7.60;4.65;;;12.30;99.90;;;;;;5051197;28;20216;-79
2022/07/07 11:00:08;;;;;;;9.05;4.50;;;12.30;99.90;;;;;;5051742;28;20207;-78
2022/07/07 11:02:42;;;;;;;5.60;4.05;;;12.20;99.90;;;;;;5052616;28;20198;-78
2022/07/07 11:05:37;;;;;;;9.35;4.18;;;12.20;99.90;;;;;;5049880;28;20287;-78
2022/07/07 11:08:17;;;;;;;7.65;3.65;;;12.10;99.90;;;;;;5049544;28;20644;-78
2022/07/07 11:10:54;;;;;;;6.07;3.35;;;12.10;99.90;;;;;;5046757;28;20209;-78
2022/07/07 11:13:32;;;;;;;7.47;3.22;;;12.00;99.90;;;;;;5052953;28;20217;-78
2022/07/07 11:16:23;;;;;;;5.50;2.92;;;12.00;99.90;;;;;;5053336;28;20220;-77
2022/07/07 11:19:01;;;;;;;5.07;2.92;;;12.00;99.90;;;;;;5051281;28;20251;-78
2022/07/07 11:21:40;;;;;;;4.47;2.80;;;12.00;99.90;;;;;;5049120;28;20200;-78
2022/07/07 11:24:22;;;;;;;4.80;2.67;;;11.90;99.90;;;;;;5046849;28;20269;-78
2022/07/07 11:27:04;;;;;;;5.82;2.72;;;11.90;99.90;;;;;;5049486;28;20287;-78
2022/07/07 11:29:39;;;;;;;5.57;2.83;;;11.90;99.90;;;;;;5049277;28;20613;-78
2022/07/07 11:32:11;;;;;;;9.27;2.90;;;11.90;99.90;;;;;;5050974;28;20197;-78
2022/07/07 11:34:51;;;;;;;4.65;2.58;;;11.90;99.90;;;;;;5050243;28;20204;-79
2022/07/07 11:37:24;;;;;;;5.20;2.50;;;11.90;99.90;;;;;;5051766;28;20316;-78
2022/07/07 11:39:57;;;;;;;5.85;2.47;;;11.80;99.90;;;;;;5052511;28;20197;-78
2022/07/07 11:42:29;;;;;;;8.32;2.90;;;11.80;99.90;;;;;;5050003;28;20296;-78
2022/07/07 11:45:01;;;;;;;5.15;2.60;;;11.80;99.90;;;;;;5053695;28;20268;-78
2022/07/07 11:47:36;;;;;;;5.68;2.40;;;11.70;99.90;;;;;;5053454;28;20304;-79
2022/07/07 11:50:12;;;;;;;3.65;2.20;;;11.70;99.90;;;;;;5043418;28;20201;-79
2022/07/07 11:52:50;;;;;;;4.68;2.67;;;11.70;99.90;;;;;;5046117;28;20213;-78
2022/07/07 11:55:21;;;;;;;4.35;2.53;;;11.70;99.90;;;;;;5052216;28;20202;-79
2022/07/07 11:57:54;;;;;;;3.40;2.65;;;11.70;99.90;;;;;;5040032;28;20198;-79
2022/07/07 12:00:30;;;;;;;4.22;2.33;;;11.60;99.90;;;;;;5040053;28;20206;-79
2022/07/07 12:03:02;;;;;;;3.45;2.20;;;11.60;99.90;;;;;;5043515;28;20201;-78
2022/07/07 12:05:37;;;;;;;3.65;2.50;;;11.50;99.90;;;;;;5048616;28;20642;-80
2022/07/07 12:08:09;;;;;;;4.45;2.38;;;11.50;99.90;;;;;;5050355;28;20219;-79
2022/07/07 12:10:41;;;;;;;3.95;2.35;;;11.50;99.90;;;;;;5052058;28;20279;-78
2022/07/07 12:13:17;;;;;;;3.10;2.00;;;11.50;99.90;;;;;;5039629;28;20202;-79
2022/07/07 12:15:49;;;;;;;2.88;2.22;;;11.50;99.90;;;;;;5039077;28;20205;-79
2022/07/07 12:18:24;;;;;;;4.13;2.13;;;11.40;99.90;;;;;;5047546;28;20201;-79
2022/07/07 12:21:04;;;;;;;3.17;2.25;;;11.40;99.90;;;;;;5046948;28;20200;-79
2022/07/07 12:23:39;;;;;;;2.97;2.20;;;11.40;99.90;;;;;;5045096;28;20212;-78
2022/07/07 12:26:15;;;;;;;4.18;2.20;;;11.40;99.90;;;;;;5044430;28;20741;-79
2022/07/07 12:28:47;;;;;;;2.58;2.38;;;11.40;99.90;;;;;;5047631;28;20193;-79
2022/07/07 12:31:20;;;;;;;2.70;2.20;;;11.30;99.90;;;;;;5045834;28;20665;-79
2022/07/07 12:33:51;;;;;;;3.17;2.00;;;11.30;99.90;;;;;;5050698;28;20197;-78
2022/07/07 12:36:26;;;;;;;3.13;2.13;;;11.30;99.90;;;;;;5049486;28;20267;-79
2022/07/07 12:39:03;;;;;;;1.90;1.75;;;11.20;99.90;;;;;;5045013;28;20234;-79
2022/07/07 12:41:34;;;;;;;2.70;2.10;;;11.20;99.90;;;;;;5041354;28;20225;-79
2022/07/07 12:44:15;;;;;;;3.17;2.25;;;11.20;99.90;;;;;;5056157;28;20246;-80
2022/07/07 12:46:46;;;;;;;3.75;1.92;;;11.10;99.90;;;;;;5047130;28;20624;-81
2022/07/07 12:49:18;;;;;;;2.78;1.92;;;11.10;99.90;;;;;;5047552;28;20297;-79
2022/07/07 12:51:51;;;;;;;4.05;2.20;;;11.10;99.90;;;;;;5045594;28;20194;-79
2022/07/07 12:54:26;;;;;;;5.15;2.00;;;11.10;99.90;;;;;;5050452;28;20280;-79
2022/07/07 12:57:06;;;;;;;3.10;1.88;;;11.10;99.90;;;;;;5051863;28;20659;-78
2022/07/07 12:59:40;;;;;;;3.13;1.95;;;11.10;99.90;;;;;;5052347;28;20193;-79
2022/07/07 13:02:11;;;;;;;3.53;1.70;;;11.10;99.90;;;;;;5044198;28;20197;-78
2022/07/07 13:04:43;;;;;;;2.50;1.60;;;11.00;99.90;;;;;;5049897;28;20277;-78
2022/07/07 13:07:15;;;;;;;1.95;1.63;;;11.10;99.90;;;;;;5050772;28;20267;-78
2022/07/07 13:09:46;;;;;;;1.83;1.60;;;11.10;99.90;;;;;;5047349;28;20197;-79
2022/07/07 13:12:18;;;;;;;2.53;1.55;;;11.00;99.90;;;;;;5051175;28;20207;-78
2022/07/07 13:14:49;;;;;;;2.10;1.50;;;11.00;99.90;;;;;;5051687;28;20198;-79
2022/07/07 13:17:20;;;;;;;2.63;1.40;;;11.00;99.90;;;;;;5050583;28;20252;-78